sensor_id;sensor_type;location;lat;lon;timestamp;pressure;altitude;pressure_sealevel;temperature;humidity
62524;BME280;53689;56.878;60.672;2023-09-19T00:02:00;97805.69;;;20.88;40.63
62524;BME280;53689;56.878;60.672;2023-09-19T00:04:32;97806.25;;;20.76;40.98
62524;BME280;53689;56.878;60.672;2023-09-19T00:07:00;97798.78;;;20.72;41.09
62524;BME280;53689;56.878;60.672;2023-09-19T00:09:27;97803.97;;;20.80;40.95
62524;BME280;53689;56.878;60.672;2023-09-19T00:11:55;97803.75;;;20.82;41.07
62524;BME280;53689;56.878;60.672;2023-09-19T00:14:25;97799.63;;;20.79;41.08
62524;BME280;53689;56.878;60.672;2023-09-19T00:16:52;97797.56;;;20.74;40.91
62524;BME280;53689;56.878;60.672;2023-09-19T00:19:20;97793.81;;;20.75;41.18
62524;BME280;53689;56.878;60.672;2023-09-19T00:21:49;97797.84;;;21.00;40.79
62524;BME280;53689;56.878;60.672;2023-09-19T00:24:17;97787.59;;;20.75;41.19
62524;BME280;53689;56.878;60.672;2023-09-19T00:26:45;97784.72;;;20.76;41.19
62524;BME280;53689;56.878;60.672;2023-09-19T00:29:13;97785.94;;;20.74;41.40
62524;BME280;53689;56.878;60.672;2023-09-19T00:31:43;97780.84;;;20.92;41.43
62524;BME280;53689;56.878;60.672;2023-09-19T00:34:10;97778.56;;;20.83;41.07
62524;BME280;53689;56.878;60.672;2023-09-19T00:36:38;97773.13;;;20.76;41.30
62524;BME280;53689;56.878;60.672;2023-09-19T00:39:07;97777.88;;;20.74;41.56
62524;BME280;53689;56.878;60.672;2023-09-19T00:41:38;97777.13;;;20.93;41.27
62524;BME280;53689;56.878;60.672;2023-09-19T00:44:07;97778.91;;;20.73;41.52
62524;BME280;53689;56.878;60.672;2023-09-19T00:46:34;97784.69;;;20.63;41.54
62524;BME280;53689;56.878;60.672;2023-09-19T00:49:02;97778.25;;;20.57;41.79
62524;BME280;53689;56.878;60.672;2023-09-19T00:51:31;97781.41;;;20.81;41.14
62524;BME280;53689;56.878;60.672;2023-09-19T00:53:59;97769.63;;;20.69;41.50
62524;BME280;53689;56.878;60.672;2023-09-19T00:56:29;97771.28;;;20.70;40.94
62524;BME280;53689;56.878;60.672;2023-09-19T00:58:57;97765.25;;;20.68;41.20
62524;BME280;53689;56.878;60.672;2023-09-19T01:01:27;97759.06;;;20.80;41.65
62524;BME280;53689;56.878;60.672;2023-09-19T01:03:55;97763.19;;;20.70;41.10
62524;BME280;53689;56.878;60.672;2023-09-19T01:06:24;97771.22;;;20.56;41.74
62524;BME280;53689;56.878;60.672;2023-09-19T01:08:52;97768.09;;;20.52;41.50
62524;BME280;53689;56.878;60.672;2023-09-19T01:11:28;97771.22;;;20.63;41.92
62524;BME280;53689;56.878;60.672;2023-09-19T01:14:12;97768.16;;;20.59;41.67
62524;BME280;53689;56.878;60.672;2023-09-19T01:16:49;97778.69;;;20.61;41.58
62524;BME280;53689;56.878;60.672;2023-09-19T01:20:02;97770.22;;;20.64;41.72
62524;BME280;53689;56.878;60.672;2023-09-19T01:22:40;97776.00;;;20.68;41.10
62524;BME280;53689;56.878;60.672;2023-09-19T01:28:23;97775.78;;;20.56;41.31
62524;BME280;53689;56.878;60.672;2023-09-19T01:30:57;97772.69;;;20.65;41.49
62524;BME280;53689;56.878;60.672;2023-09-19T01:33:24;97766.88;;;20.62;41.06
62524;BME280;53689;56.878;60.672;2023-09-19T01:35:52;97771.44;;;20.61;41.18
62524;BME280;53689;56.878;60.672;2023-09-19T01:38:20;97776.84;;;20.68;40.88
62524;BME280;53689;56.878;60.672;2023-09-19T01:41:02;97772.94;;;20.77;41.06
62524;BME280;53689;56.878;60.672;2023-09-19T01:43:38;97785.78;;;20.82;40.95
62524;BME280;53689;56.878;60.672;2023-09-19T01:46:14;97786.41;;;20.91;40.79
62524;BME280;53689;56.878;60.672;2023-09-19T01:48:52;97790.38;;;21.09;40.52
62524;BME280;53689;56.878;60.672;2023-09-19T01:51:28;97793.06;;;20.95;40.90
62524;BME280;53689;56.878;60.672;2023-09-19T01:54:03;97795.38;;;21.12;40.25
62524;BME280;53689;56.878;60.672;2023-09-19T01:56:36;97798.66;;;21.20;40.52
62524;BME280;53689;56.878;60.672;2023-09-19T01:59:08;97795.16;;;21.27;40.22
62524;BME280;53689;56.878;60.672;2023-09-19T02:01:39;97794.31;;;21.53;40.18
62524;BME280;53689;56.878;60.672;2023-09-19T02:04:09;97794.34;;;21.40;40.43
62524;BME280;53689;56.878;60.672;2023-09-19T02:06:40;97795.78;;;21.22;39.94
62524;BME280;53689;56.878;60.672;2023-09-19T02:09:08;97785.19;;;20.93;40.61
62524;BME280;53689;56.878;60.672;2023-09-19T02:11:36;97786.44;;;21.38;40.30
62524;BME280;53689;56.878;60.672;2023-09-19T02:14:04;97786.88;;;21.42;39.81
62524;BME280;53689;56.878;60.672;2023-09-19T02:16:33;97783.56;;;21.46;39.67
62524;BME280;53689;56.878;60.672;2023-09-19T02:19:02;97794.31;;;21.73;39.48
62524;BME280;53689;56.878;60.672;2023-09-19T02:21:30;97796.81;;;21.82;39.18
62524;BME280;53689;56.878;60.672;2023-09-19T02:23:58;97799.91;;;21.45;40.26
62524;BME280;53689;56.878;60.672;2023-09-19T02:26:25;97805.50;;;21.16;41.19
62524;BME280;53689;56.878;60.672;2023-09-19T02:28:53;97803.03;;;21.21;41.15
62524;BME280;53689;56.878;60.672;2023-09-19T02:31:21;97807.97;;;21.11;40.96
62524;BME280;53689;56.878;60.672;2023-09-19T02:33:49;97807.59;;;21.21;41.04
62524;BME280;53689;56.878;60.672;2023-09-19T02:36:18;97806.09;;;21.05;41.01
62524;BME280;53689;56.878;60.672;2023-09-19T02:38:46;97804.63;;;20.82;41.75
62524;BME280;53689;56.878;60.672;2023-09-19T02:41:15;97809.03;;;21.10;41.04
62524;BME280;53689;56.878;60.672;2023-09-19T02:43:42;97807.16;;;21.17;41.34
62524;BME280;53689;56.878;60.672;2023-09-19T02:46:11;97812.69;;;20.82;41.48
62524;BME280;53689;56.878;60.672;2023-09-19T02:48:40;97815.22;;;20.90;41.71
62524;BME280;53689;56.878;60.672;2023-09-19T02:51:07;97815.81;;;20.99;41.24
62524;BME280;53689;56.878;60.672;2023-09-19T02:53:36;97815.00;;;20.99;41.33
62524;BME280;53689;56.878;60.672;2023-09-19T02:56:04;97815.34;;;20.75;41.60
62524;BME280;53689;56.878;60.672;2023-09-19T02:58:32;97818.50;;;20.92;42.03
62524;BME280;53689;56.878;60.672;2023-09-19T03:01:08;97824.66;;;20.73;41.34
62524;BME280;53689;56.878;60.672;2023-09-19T03:03:36;97820.13;;;20.73;41.75
62524;BME280;53689;56.878;60.672;2023-09-19T03:06:05;97822.75;;;20.66;41.51
62524;BME280;53689;56.878;60.672;2023-09-19T03:08:33;97817.38;;;20.60;41.95
62524;BME280;53689;56.878;60.672;2023-09-19T03:11:03;97817.50;;;20.38;42.16
62524;BME280;53689;56.878;60.672;2023-09-19T03:13:31;97814.69;;;20.60;41.69
62524;BME280;53689;56.878;60.672;2023-09-19T03:15:59;97815.13;;;20.70;41.84
62524;BME280;53689;56.878;60.672;2023-09-19T03:18:28;97807.00;;;20.50;42.40
62524;BME280;53689;56.878;60.672;2023-09-19T03:20:57;97815.53;;;20.60;41.54
62524;BME280;53689;56.878;60.672;2023-09-19T03:23:25;97815.78;;;20.79;41.10
62524;BME280;53689;56.878;60.672;2023-09-19T03:25:53;97814.75;;;20.80;41.17
62524;BME280;53689;56.878;60.672;2023-09-19T03:28:22;97812.50;;;20.90;41.03
62524;BME280;53689;56.878;60.672;2023-09-19T03:31:00;97818.84;;;20.76;41.39
62524;BME280;53689;56.878;60.672;2023-09-19T03:33:29;97822.44;;;20.90;41.34
62524;BME280;53689;56.878;60.672;2023-09-19T03:35:57;97815.41;;;20.89;41.71
62524;BME280;53689;56.878;60.672;2023-09-19T03:38:24;97815.28;;;20.62;41.85
62524;BME280;53689;56.878;60.672;2023-09-19T03:40:53;97820.31;;;20.78;41.25
62524;BME280;53689;56.878;60.672;2023-09-19T03:43:22;97819.72;;;20.21;41.54
62524;BME280;53689;56.878;60.672;2023-09-19T03:45:50;97820.72;;;20.20;42.45
62524;BME280;53689;56.878;60.672;2023-09-19T03:48:18;97818.69;;;20.84;42.08
62524;BME280;53689;56.878;60.672;2023-09-19T03:50:47;97826.59;;;20.99;41.64
62524;BME280;53689;56.878;60.672;2023-09-19T03:53:15;97819.78;;;21.17;41.66
62524;BME280;53689;56.878;60.672;2023-09-19T03:55:45;97829.72;;;21.03;41.83
62524;BME280;53689;56.878;60.672;2023-09-19T03:58:13;97830.75;;;21.02;42.29
62524;BME280;53689;56.878;60.672;2023-09-19T04:00:42;97830.38;;;21.45;41.17
62524;BME280;53689;56.878;60.672;2023-09-19T04:03:10;97832.44;;;21.37;41.29
62524;BME280;53689;56.878;60.672;2023-09-19T04:05:38;97827.03;;;21.30;40.83
62524;BME280;53689;56.878;60.672;2023-09-19T04:08:06;97834.28;;;21.23;41.36
62524;BME280;53689;56.878;60.672;2023-09-19T04:10:34;97838.84;;;21.22;40.96
62524;BME280;53689;56.878;60.672;2023-09-19T04:13:03;97837.16;;;21.07;41.46
62524;BME280;53689;56.878;60.672;2023-09-19T04:15:30;97828.69;;;21.11;41.08
62524;BME280;53689;56.878;60.672;2023-09-19T04:18:00;97839.84;;;21.01;41.38
62524;BME280;53689;56.878;60.672;2023-09-19T04:20:27;97831.53;;;20.89;41.75
62524;BME280;53689;56.878;60.672;2023-09-19T04:22:55;97828.06;;;20.95;41.10
62524;BME280;53689;56.878;60.672;2023-09-19T04:25:24;97829.69;;;20.83;41.56
62524;BME280;53689;56.878;60.672;2023-09-19T04:27:52;97838.81;;;20.88;41.20
62524;BME280;53689;56.878;60.672;2023-09-19T04:30:19;97839.84;;;20.94;41.91
62524;BME280;53689;56.878;60.672;2023-09-19T04:32:47;97843.78;;;20.36;41.36
62524;BME280;53689;56.878;60.672;2023-09-19T04:35:17;97844.81;;;20.97;40.65
62524;BME280;53689;56.878;60.672;2023-09-19T04:37:44;97843.50;;;20.79;41.25
62524;BME280;53689;56.878;60.672;2023-09-19T04:40:12;97847.22;;;20.78;40.78
62524;BME280;53689;56.878;60.672;2023-09-19T04:42:40;97851.50;;;21.42;39.77
62524;BME280;53689;56.878;60.672;2023-09-19T04:45:08;97852.31;;;21.29;39.52
62524;BME280;53689;56.878;60.672;2023-09-19T04:47:36;97846.59;;;20.76;40.23
62524;BME280;53689;56.878;60.672;2023-09-19T04:50:07;97838.94;;;20.73;41.04
62524;BME280;53689;56.878;60.672;2023-09-19T04:52:38;97847.31;;;21.05;40.55
62524;BME280;53689;56.878;60.672;2023-09-19T04:55:09;97839.25;;;21.19;40.26
62524;BME280;53689;56.878;60.672;2023-09-19T04:57:36;97836.03;;;20.75;40.11
62524;BME280;53689;56.878;60.672;2023-09-19T05:00:06;97833.19;;;20.83;39.95
62524;BME280;53689;56.878;60.672;2023-09-19T05:02:34;97838.44;;;21.39;38.95
62524;BME280;53689;56.878;60.672;2023-09-19T05:05:02;97834.38;;;20.67;39.62
62524;BME280;53689;56.878;60.672;2023-09-19T05:07:30;97828.38;;;20.16;40.69
62524;BME280;53689;56.878;60.672;2023-09-19T05:09:59;97825.16;;;20.41;40.74
62524;BME280;53689;56.878;60.672;2023-09-19T05:12:27;97840.41;;;20.27;40.97
62524;BME280;53689;56.878;60.672;2023-09-19T05:14:55;97835.56;;;20.51;39.69
62524;BME280;53689;56.878;60.672;2023-09-19T05:17:24;97837.41;;;21.40;38.68
62524;BME280;53689;56.878;60.672;2023-09-19T05:19:52;97827.25;;;21.21;39.01
62524;BME280;53689;56.878;60.672;2023-09-19T05:22:20;97837.13;;;20.32;39.73
62524;BME280;53689;56.878;60.672;2023-09-19T05:24:49;97842.22;;;20.20;40.48
62524;BME280;53689;56.878;60.672;2023-09-19T05:27:19;97834.53;;;20.10;39.98
62524;BME280;53689;56.878;60.672;2023-09-19T05:29:46;97834.81;;;20.22;40.47
62524;BME280;53689;56.878;60.672;2023-09-19T05:32:14;97840.94;;;20.58;39.59
62524;BME280;53689;56.878;60.672;2023-09-19T05:34:42;97839.81;;;20.38;40.08
62524;BME280;53689;56.878;60.672;2023-09-19T05:37:09;97839.84;;;21.01;38.72
62524;BME280;53689;56.878;60.672;2023-09-19T05:39:37;97827.69;;;20.49;39.95
62524;BME280;53689;56.878;60.672;2023-09-19T05:42:05;97834.84;;;19.93;40.61
62524;BME280;53689;56.878;60.672;2023-09-19T05:44:35;97826.94;;;20.20;40.65
62524;BME280;53689;56.878;60.672;2023-09-19T05:47:04;97829.84;;;20.81;39.32
62524;BME280;53689;56.878;60.672;2023-09-19T05:49:31;97826.75;;;20.22;40.63
62524;BME280;53689;56.878;60.672;2023-09-19T05:52:00;97825.00;;;20.07;40.96
62524;BME280;53689;56.878;60.672;2023-09-19T05:54:27;97823.19;;;20.70;39.06
62524;BME280;53689;56.878;60.672;2023-09-19T05:56:55;97824.97;;;21.12;39.35
62524;BME280;53689;56.878;60.672;2023-09-19T05:59:22;97828.56;;;20.63;39.83
62524;BME280;53689;56.878;60.672;2023-09-19T06:01:52;97832.38;;;20.34;39.84
62524;BME280;53689;56.878;60.672;2023-09-19T06:04:20;97832.34;;;19.92;40.45
62524;BME280;53689;56.878;60.672;2023-09-19T06:06:48;97831.81;;;19.75;40.52
62524;BME280;53689;56.878;60.672;2023-09-19T06:09:15;97831.69;;;20.18;40.25
62524;BME280;53689;56.878;60.672;2023-09-19T06:11:43;97829.41;;;20.64;39.06
62524;BME280;53689;56.878;60.672;2023-09-19T06:14:11;97830.50;;;20.34;40.61
62524;BME280;53689;56.878;60.672;2023-09-19T06:16:39;97837.19;;;20.03;39.94
62524;BME280;53689;56.878;60.672;2023-09-19T06:19:09;97838.78;;;20.33;39.51
62524;BME280;53689;56.878;60.672;2023-09-19T06:21:37;97845.09;;;20.54;38.93
62524;BME280;53689;56.878;60.672;2023-09-19T06:24:05;97843.97;;;19.99;40.04
62524;BME280;53689;56.878;60.672;2023-09-19T06:26:32;97854.50;;;19.94;40.24
62524;BME280;53689;56.878;60.672;2023-09-19T06:29:00;97857.38;;;19.64;40.17
62524;BME280;53689;56.878;60.672;2023-09-19T06:31:29;97862.09;;;19.90;40.63
62524;BME280;53689;56.878;60.672;2023-09-19T06:33:57;97858.34;;;19.85;39.79
62524;BME280;53689;56.878;60.672;2023-09-19T06:36:26;97860.22;;;19.91;39.95
62524;BME280;53689;56.878;60.672;2023-09-19T06:38:54;97870.22;;;19.97;40.08
62524;BME280;53689;56.878;60.672;2023-09-19T06:41:21;97866.09;;;20.01;39.83
62524;BME280;53689;56.878;60.672;2023-09-19T06:43:49;97861.53;;;20.30;39.43
62524;BME280;53689;56.878;60.672;2023-09-19T06:46:18;97862.63;;;20.07;40.13
62524;BME280;53689;56.878;60.672;2023-09-19T06:48:47;97866.38;;;20.13;39.87
62524;BME280;53689;56.878;60.672;2023-09-19T06:51:14;97870.25;;;20.39;39.46
62524;BME280;53689;56.878;60.672;2023-09-19T06:53:45;97868.47;;;20.18;39.46
62524;BME280;53689;56.878;60.672;2023-09-19T06:56:12;97875.28;;;20.14;39.84
62524;BME280;53689;56.878;60.672;2023-09-19T06:58:40;97865.31;;;20.43;39.35
62524;BME280;53689;56.878;60.672;2023-09-19T07:01:09;97878.00;;;20.62;39.17
62524;BME280;53689;56.878;60.672;2023-09-19T07:03:37;97871.09;;;20.40;39.70
62524;BME280;53689;56.878;60.672;2023-09-19T07:06:05;97869.31;;;19.61;40.52
62524;BME280;53689;56.878;60.672;2023-09-19T07:08:33;97882.63;;;19.98;40.10
62524;BME280;53689;56.878;60.672;2023-09-19T07:11:02;97866.78;;;20.45;39.85
62524;BME280;53689;56.878;60.672;2023-09-19T07:13:30;97880.41;;;20.08;40.26
62524;BME280;53689;56.878;60.672;2023-09-19T07:15:59;97875.66;;;20.46;39.96
62524;BME280;53689;56.878;60.672;2023-09-19T07:18:27;97882.19;;;20.72;39.26
62524;BME280;53689;56.878;60.672;2023-09-19T07:20:57;97889.06;;;20.39;39.49
62524;BME280;53689;56.878;60.672;2023-09-19T07:23:25;97880.53;;;20.29;39.82
62524;BME280;53689;56.878;60.672;2023-09-19T07:25:56;97882.06;;;20.45;39.77
62524;BME280;53689;56.878;60.672;2023-09-19T07:28:26;97877.28;;;20.40;39.13
62524;BME280;53689;56.878;60.672;2023-09-19T07:30:54;97882.97;;;21.34;38.19
62524;BME280;53689;56.878;60.672;2023-09-19T07:33:21;97877.59;;;21.41;38.00
62524;BME280;53689;56.878;60.672;2023-09-19T07:35:49;97878.41;;;21.21;38.40
62524;BME280;53689;56.878;60.672;2023-09-19T07:38:16;97871.16;;;20.60;39.59
62524;BME280;53689;56.878;60.672;2023-09-19T07:40:44;97881.69;;;21.10;38.77
62524;BME280;53689;56.878;60.672;2023-09-19T07:43:12;97877.59;;;21.28;38.21
62524;BME280;53689;56.878;60.672;2023-09-19T07:45:43;97879.63;;;21.05;38.83
62524;BME280;53689;56.878;60.672;2023-09-19T07:48:10;97870.94;;;21.24;38.52
62524;BME280;53689;56.878;60.672;2023-09-19T07:50:38;97879.66;;;21.53;37.77
62524;BME280;53689;56.878;60.672;2023-09-19T07:53:06;97875.91;;;21.13;38.90
62524;BME280;53689;56.878;60.672;2023-09-19T07:55:33;97875.94;;;21.27;38.34
62524;BME280;53689;56.878;60.672;2023-09-19T07:58:02;97889.16;;;21.21;38.72
62524;BME280;53689;56.878;60.672;2023-09-19T08:00:30;97888.38;;;21.95;37.33
62524;BME280;53689;56.878;60.672;2023-09-19T08:03:00;97887.78;;;21.80;37.75
62524;BME280;53689;56.878;60.672;2023-09-19T08:05:34;97887.34;;;21.62;37.54
62524;BME280;53689;56.878;60.672;2023-09-19T08:08:02;97894.84;;;21.67;37.97
62524;BME280;53689;56.878;60.672;2023-09-19T08:10:30;97893.91;;;21.06;38.68
62524;BME280;53689;56.878;60.672;2023-09-19T08:12:58;97895.19;;;20.68;39.79
62524;BME280;53689;56.878;60.672;2023-09-19T08:15:25;97898.94;;;20.74;39.58
62524;BME280;53689;56.878;60.672;2023-09-19T08:17:53;97896.41;;;20.65;39.96
62524;BME280;53689;56.878;60.672;2023-09-19T08:20:22;97907.31;;;20.86;39.33
62524;BME280;53689;56.878;60.672;2023-09-19T08:22:51;97905.84;;;20.90;39.24
62524;BME280;53689;56.878;60.672;2023-09-19T08:25:19;97897.34;;;20.86;40.11
62524;BME280;53689;56.878;60.672;2023-09-19T08:27:46;97904.25;;;21.09;39.38
62524;BME280;53689;56.878;60.672;2023-09-19T08:30:15;97908.84;;;20.66;40.20
62524;BME280;53689;56.878;60.672;2023-09-19T08:32:43;97898.47;;;20.57;40.39
62524;BME280;53689;56.878;60.672;2023-09-19T08:35:11;97906.72;;;20.97;39.74
62524;BME280;53689;56.878;60.672;2023-09-19T08:37:41;97910.88;;;21.06;40.03
62524;BME280;53689;56.878;60.672;2023-09-19T08:40:10;97913.63;;;21.33;39.20
62524;BME280;53689;56.878;60.672;2023-09-19T08:42:50;97914.63;;;21.19;40.03
62524;BME280;53689;56.878;60.672;2023-09-19T08:45:20;97920.59;;;21.01;39.52
62524;BME280;53689;56.878;60.672;2023-09-19T08:47:56;97917.59;;;20.75;40.16
62524;BME280;53689;56.878;60.672;2023-09-19T08:50:29;97925.88;;;20.80;40.16
62524;BME280;53689;56.878;60.672;2023-09-19T08:53:01;97928.13;;;20.77;39.58
62524;BME280;53689;56.878;60.672;2023-09-19T08:55:29;97922.13;;;20.75;39.99
62524;BME280;53689;56.878;60.672;2023-09-19T08:58:00;97931.19;;;20.67;39.36
62524;BME280;53689;56.878;60.672;2023-09-19T09:00:32;97934.16;;;20.79;39.02
62524;BME280;53689;56.878;60.672;2023-09-19T09:03:00;97936.84;;;20.79;40.11
62524;BME280;53689;56.878;60.672;2023-09-19T09:05:31;97929.69;;;20.93;39.26
62524;BME280;53689;56.878;60.672;2023-09-19T09:08:03;97938.81;;;20.99;38.91
62524;BME280;53689;56.878;60.672;2023-09-19T09:10:32;97937.31;;;20.89;39.14
62524;BME280;53689;56.878;60.672;2023-09-19T09:13:00;97937.59;;;21.01;38.85
62524;BME280;53689;56.878;60.672;2023-09-19T09:15:30;97939.03;;;21.04;39.36
62524;BME280;53689;56.878;60.672;2023-09-19T09:17:58;97942.38;;;21.06;39.73
62524;BME280;53689;56.878;60.672;2023-09-19T09:20:26;97941.06;;;20.95;39.06
62524;BME280;53689;56.878;60.672;2023-09-19T09:22:54;97948.72;;;20.91;39.71
62524;BME280;53689;56.878;60.672;2023-09-19T09:25:47;97946.66;;;20.93;39.61
62524;BME280;53689;56.878;60.672;2023-09-19T09:28:19;97952.28;;;20.99;39.76
62524;BME280;53689;56.878;60.672;2023-09-19T09:30:50;97945.59;;;20.88;39.77
62524;BME280;53689;56.878;60.672;2023-09-19T09:33:18;97945.06;;;21.06;39.27
62524;BME280;53689;56.878;60.672;2023-09-19T09:35:50;97948.63;;;20.78;39.34
62524;BME280;53689;56.878;60.672;2023-09-19T09:38:21;97955.50;;;21.49;38.40
62524;BME280;53689;56.878;60.672;2023-09-19T09:40:51;97953.84;;;21.55;38.64
62524;BME280;53689;56.878;60.672;2023-09-19T09:43:26;97956.38;;;20.95;38.61
62524;BME280;53689;56.878;60.672;2023-09-19T09:46:21;97954.59;;;21.15;38.68
62524;BME280;53689;56.878;60.672;2023-09-19T09:48:56;97957.06;;;21.17;38.27
62524;BME280;53689;56.878;60.672;2023-09-19T09:51:29;97950.03;;;21.09;38.05
62524;BME280;53689;56.878;60.672;2023-09-19T09:54:10;97942.59;;;20.76;39.08
62524;BME280;53689;56.878;60.672;2023-09-19T09:56:52;97952.09;;;21.14;37.61
62524;BME280;53689;56.878;60.672;2023-09-19T09:59:20;97951.50;;;21.18;38.26
62524;BME280;53689;56.878;60.672;2023-09-19T10:01:50;97954.44;;;21.37;37.46
62524;BME280;53689;56.878;60.672;2023-09-19T10:04:27;97956.53;;;21.62;37.27
62524;BME280;53689;56.878;60.672;2023-09-19T10:06:56;97951.34;;;21.47;37.85
62524;BME280;53689;56.878;60.672;2023-09-19T10:09:24;97952.81;;;21.49;37.50
62524;BME280;53689;56.878;60.672;2023-09-19T10:12:02;97950.19;;;21.76;37.35
62524;BME280;53689;56.878;60.672;2023-09-19T10:14:33;97961.50;;;21.38;37.36
62524;BME280;53689;56.878;60.672;2023-09-19T10:17:05;97954.47;;;21.51;37.64
62524;BME280;53689;56.878;60.672;2023-09-19T10:19:38;97956.81;;;21.67;36.90
62524;BME280;53689;56.878;60.672;2023-09-19T10:22:10;97945.19;;;21.87;36.74
62524;BME280;53689;56.878;60.672;2023-09-19T10:24:40;97953.69;;;21.70;36.80
62524;BME280;53689;56.878;60.672;2023-09-19T10:27:29;97942.88;;;21.50;36.11
62524;BME280;53689;56.878;60.672;2023-09-19T10:29:58;97946.66;;;21.89;36.42
62524;BME280;53689;56.878;60.672;2023-09-19T10:32:28;97951.84;;;22.04;36.33
62524;BME280;53689;56.878;60.672;2023-09-19T10:34:58;97950.59;;;21.73;36.59
62524;BME280;53689;56.878;60.672;2023-09-19T10:37:27;97950.53;;;21.53;36.61
62524;BME280;53689;56.878;60.672;2023-09-19T10:39:56;97953.41;;;21.25;36.70
62524;BME280;53689;56.878;60.672;2023-09-19T10:42:25;97951.22;;;21.75;35.85
62524;BME280;53689;56.878;60.672;2023-09-19T10:44:58;97946.16;;;21.39;36.22
62524;BME280;53689;56.878;60.672;2023-09-19T10:47:27;97943.69;;;21.57;35.76
62524;BME280;53689;56.878;60.672;2023-09-19T10:49:55;97949.69;;;21.39;36.56
62524;BME280;53689;56.878;60.672;2023-09-19T10:52:25;97949.34;;;21.76;36.00
62524;BME280;53689;56.878;60.672;2023-09-19T10:54:55;97951.34;;;21.47;36.55
62524;BME280;53689;56.878;60.672;2023-09-19T10:57:25;97953.22;;;21.53;35.95
62524;BME280;53689;56.878;60.672;2023-09-19T11:00:04;97959.47;;;20.85;36.61
62524;BME280;53689;56.878;60.672;2023-09-19T11:02:33;97957.16;;;21.51;36.16
62524;BME280;53689;56.878;60.672;2023-09-19T11:05:12;97959.19;;;21.28;36.40
62524;BME280;53689;56.878;60.672;2023-09-19T11:07:59;97955.66;;;21.28;36.76
62524;BME280;53689;56.878;60.672;2023-09-19T11:10:45;97963.22;;;21.73;36.34
62524;BME280;53689;56.878;60.672;2023-09-19T11:13:31;97970.00;;;21.62;36.47
62524;BME280;53689;56.878;60.672;2023-09-19T11:16:09;97966.47;;;21.41;36.29
62524;BME280;53689;56.878;60.672;2023-09-19T11:18:55;97968.78;;;20.96;36.65
62524;BME280;53689;56.878;60.672;2023-09-19T11:21:52;97966.25;;;21.43;36.39
62524;BME280;53689;56.878;60.672;2023-09-19T11:24:32;97968.09;;;21.22;36.00
62524;BME280;53689;56.878;60.672;2023-09-19T11:27:13;97974.53;;;21.41;35.91
62524;BME280;53689;56.878;60.672;2023-09-19T11:29:42;97969.81;;;21.57;35.70
62524;BME280;53689;56.878;60.672;2023-09-19T11:32:11;97974.22;;;22.12;35.39
62524;BME280;53689;56.878;60.672;2023-09-19T11:34:46;97975.06;;;21.92;34.76
62524;BME280;53689;56.878;60.672;2023-09-19T11:40:32;97968.34;;;21.61;34.90
62524;BME280;53689;56.878;60.672;2023-09-19T11:43:30;97968.78;;;20.96;35.96
62524;BME280;53689;56.878;60.672;2023-09-19T11:46:07;97974.22;;;19.81;37.29
62524;BME280;53689;56.878;60.672;2023-09-19T11:48:38;97973.41;;;19.59;37.66
62524;BME280;53689;56.878;60.672;2023-09-19T11:51:17;97968.56;;;19.69;37.02
62524;BME280;53689;56.878;60.672;2023-09-19T11:53:46;97968.72;;;20.12;36.82
62524;BME280;53689;56.878;60.672;2023-09-19T11:56:14;97969.25;;;19.78;36.23
62524;BME280;53689;56.878;60.672;2023-09-19T11:58:43;97978.19;;;19.86;36.49
62524;BME280;53689;56.878;60.672;2023-09-19T12:01:13;97975.50;;;20.07;36.72
62524;BME280;53689;56.878;60.672;2023-09-19T12:03:46;97980.59;;;20.24;36.59
62524;BME280;53689;56.878;60.672;2023-09-19T12:06:15;97969.00;;;19.73;36.87
62524;BME280;53689;56.878;60.672;2023-09-19T12:08:43;97969.78;;;19.30;38.11
62524;BME280;53689;56.878;60.672;2023-09-19T12:11:14;97969.38;;;19.48;37.71
62524;BME280;53689;56.878;60.672;2023-09-19T12:13:43;97978.91;;;19.94;36.96
62524;BME280;53689;56.878;60.672;2023-09-19T12:16:16;97975.91;;;19.82;36.72
62524;BME280;53689;56.878;60.672;2023-09-19T12:18:46;97980.97;;;19.71;37.08
62524;BME280;53689;56.878;60.672;2023-09-19T12:21:27;97969.28;;;19.85;37.21
62524;BME280;53689;56.878;60.672;2023-09-19T12:26:26;97984.25;;;20.45;36.47
62524;BME280;53689;56.878;60.672;2023-09-19T12:28:55;97977.56;;;20.76;35.88
62524;BME280;53689;56.878;60.672;2023-09-19T12:31:24;97978.72;;;20.53;36.59
62524;BME280;53689;56.878;60.672;2023-09-19T12:33:54;97985.38;;;20.99;35.62
62524;BME280;53689;56.878;60.672;2023-09-19T12:36:23;97980.41;;;20.96;35.97
62524;BME280;53689;56.878;60.672;2023-09-19T12:38:51;97986.81;;;20.95;36.16
62524;BME280;53689;56.878;60.672;2023-09-19T12:41:18;97986.31;;;20.78;35.85
62524;BME280;53689;56.878;60.672;2023-09-19T12:43:46;97992.78;;;21.53;35.48
62524;BME280;53689;56.878;60.672;2023-09-19T12:46:14;97988.63;;;21.43;35.06
62524;BME280;53689;56.878;60.672;2023-09-19T12:48:46;97992.22;;;20.95;35.69
62524;BME280;53689;56.878;60.672;2023-09-19T12:51:16;97997.16;;;20.91;35.81
62524;BME280;53689;56.878;60.672;2023-09-19T12:53:46;97999.88;;;21.60;35.05
62524;BME280;53689;56.878;60.672;2023-09-19T12:56:14;98002.50;;;20.85;36.27
62524;BME280;53689;56.878;60.672;2023-09-19T12:58:51;98010.25;;;20.66;35.84
62524;BME280;53689;56.878;60.672;2023-09-19T13:01:20;98013.09;;;20.93;35.71
62524;BME280;53689;56.878;60.672;2023-09-19T13:04:12;98003.19;;;21.56;35.03
62524;BME280;53689;56.878;60.672;2023-09-19T13:06:41;98012.38;;;20.77;35.86
62524;BME280;53689;56.878;60.672;2023-09-19T13:09:09;98016.16;;;20.83;35.77
62524;BME280;53689;56.878;60.672;2023-09-19T13:11:38;98020.97;;;20.95;35.65
62524;BME280;53689;56.878;60.672;2023-09-19T13:14:15;98009.25;;;21.16;35.21
62524;BME280;53689;56.878;60.672;2023-09-19T13:16:57;98022.00;;;20.58;35.91